createdAt,value
2023-05-19T00:01:21.481Z,53.83
2023-05-19T00:06:25.511Z,54.29
2023-05-19T00:11:28.754Z,54.32
2023-05-19T00:16:31.776Z,54.54
2023-05-19T00:21:33.683Z,54.78
2023-05-19T00:26:35.681Z,54.91
2023-05-19T00:31:40.328Z,55.09
2023-05-19T00:36:44.355Z,55.66
2023-05-19T00:41:48.965Z,56.42
2023-05-19T00:46:50.999Z,56.19
2023-05-19T00:51:53.350Z,56.41
2023-05-19T00:56:57.102Z,56.55
2023-05-19T01:01:59.055Z,56.63
2023-05-19T01:07:01.283Z,56.84
2023-05-19T01:12:03.827Z,57.13
2023-05-19T01:17:29.665Z,59.02
2023-05-19T01:23:01.892Z,58.88
2023-05-19T01:28:06.581Z,57.55
2023-05-19T01:33:15.987Z,57.28
2023-05-19T01:38:19.553Z,57.03
2023-05-19T01:43:25.432Z,57.84
2023-05-19T01:48:29.115Z,57.98
2023-05-19T01:53:32.719Z,57.92
2023-05-19T01:58:38.410Z,58.16
2023-05-19T02:04:03.383Z,58.04
2023-05-19T02:09:16.523Z,58.22
2023-05-19T02:14:34.217Z,59.14
2023-05-19T02:19:40.167Z,58.82
2023-05-19T02:24:42.076Z,58.62
2023-05-19T02:29:43.977Z,58.60
2023-05-19T02:34:45.840Z,58.65
2023-05-19T02:39:48.134Z,58.58
2023-05-19T02:44:50.089Z,58.39
2023-05-19T02:49:52.897Z,58.50
2023-05-19T02:54:54.766Z,58.28
2023-05-19T02:59:56.670Z,58.20
2023-05-19T03:04:58.644Z,58.71
2023-05-19T03:10:03.905Z,59.25
2023-05-19T03:15:07.047Z,58.99
2023-05-19T03:20:10.922Z,58.95
2023-05-19T03:25:12.832Z,59.16
2023-05-19T03:30:15.749Z,59.08
2023-05-19T03:35:37.862Z,59.14
2023-05-19T03:40:41.537Z,58.98
2023-05-19T03:45:46.428Z,58.89
2023-05-19T03:51:07.347Z,58.94
2023-05-19T03:56:13.833Z,58.91
2023-05-19T04:01:15.903Z,58.78
2023-05-19T04:06:19.228Z,58.60
2023-05-19T04:11:21.582Z,58.46
2023-05-19T04:16:23.708Z,58.28
2023-05-19T04:21:25.945Z,58.22
2023-05-19T04:26:31.269Z,56.83
2023-05-19T04:31:34.622Z,52.57
2023-05-19T04:36:38.492Z,48.58
2023-05-19T04:41:43.842Z,45.70
2023-05-19T04:46:46.240Z,43.29
2023-05-19T04:51:52.289Z,41.54
2023-05-19T04:56:59.649Z,40.13
2023-05-19T05:02:04.555Z,38.43
2023-05-19T05:07:06.529Z,37.17
2023-05-19T05:12:09.804Z,36.69
2023-05-19T05:17:14.281Z,36.66
2023-05-19T05:22:17.701Z,36.93
2023-05-19T05:27:19.696Z,38.19
2023-05-19T05:32:22.165Z,40.44
2023-05-19T05:37:24.573Z,42.53
2023-05-19T05:42:29.480Z,44.32
2023-05-19T05:47:32.446Z,45.24
2023-05-19T05:52:40.002Z,46.46
2023-05-19T05:57:43.183Z,46.92
2023-05-19T06:02:50.681Z,47.45
2023-05-19T06:07:55.253Z,47.61
2023-05-19T06:13:01.391Z,47.76
2023-05-19T06:18:03.585Z,47.42
2023-05-19T06:23:05.611Z,47.17
2023-05-19T06:28:07.616Z,46.84
2023-05-19T06:33:09.711Z,46.67
2023-05-19T06:38:14.134Z,46.39
2023-05-19T06:43:17.164Z,46.15
2023-05-19T06:48:30.820Z,46.74
2023-05-19T06:53:34.133Z,45.92
2023-05-19T06:58:40.007Z,45.56
2023-05-19T07:03:43.524Z,45.22
2023-05-19T07:08:47.067Z,45.44
2023-05-19T07:13:49.385Z,45.20
2023-05-19T07:18:57.985Z,44.90
2023-05-19T07:24:00.205Z,44.73
2023-05-19T07:29:03.755Z,44.53
2023-05-19T07:34:06.045Z,42.63
2023-05-19T07:39:08.055Z,39.55
2023-05-19T07:44:10.914Z,37.42
2023-05-19T07:49:12.884Z,37.87
2023-05-19T07:54:14.781Z,38.02
2023-05-19T07:59:16.842Z,37.98
2023-05-19T08:04:18.840Z,37.35
2023-05-19T08:09:20.767Z,35.63
2023-05-19T08:14:22.994Z,34.44
2023-05-19T08:19:25.012Z,33.96
2023-05-19T08:24:30.265Z,34.61
2023-05-19T08:29:32.293Z,33.24
2023-05-19T08:34:34.469Z,30.76
2023-05-19T08:39:36.854Z,30.69
2023-05-19T08:44:40.220Z,30.14
2023-05-19T08:49:45.399Z,29.97
2023-05-19T08:54:55.032Z,30.09
2023-05-19T08:59:58.918Z,30.57
2023-05-19T09:05:01.682Z,31.39
2023-05-19T09:10:04.496Z,32.17
2023-05-19T09:15:09.227Z,31.90
2023-05-19T09:20:13.824Z,29.14
2023-05-19T09:25:25.974Z,30.16
2023-05-19T09:30:30.963Z,31.59
2023-05-19T09:35:35.399Z,29.83
2023-05-19T09:40:37.621Z,29.97
2023-05-19T09:45:39.602Z,29.95
2023-05-19T09:50:44.423Z,28.57
2023-05-19T09:55:47.096Z,30.03
2023-05-19T10:00:50.678Z,29.76
2023-05-19T10:05:53.734Z,29.50
2023-05-19T10:10:56.922Z,29.38
2023-05-19T10:16:00.287Z,29.06
2023-05-19T10:21:02.924Z,28.67
2023-05-19T10:26:06.962Z,28.68
2023-05-19T10:31:14.933Z,28.78
2023-05-19T10:36:47.066Z,27.24
2023-05-19T10:42:12.769Z,30.20
2023-05-19T10:47:14.790Z,29.43
2023-05-19T10:52:21.972Z,29.15
2023-05-19T10:57:32.471Z,30.35
2023-05-19T11:02:41.644Z,29.16
2023-05-19T11:08:06.295Z,29.30
2023-05-19T11:13:08.244Z,29.77
2023-05-19T11:18:10.891Z,29.74
2023-05-19T11:23:20.345Z,28.72
2023-05-19T11:28:28.254Z,27.99
2023-05-19T11:33:32.640Z,28.27
2023-05-19T11:38:35.204Z,28.18
2023-05-19T11:43:37.067Z,28.17
2023-05-19T11:48:39.042Z,28.61
2023-05-19T11:54:05.948Z,27.69
2023-05-19T11:59:08.826Z,28.50
2023-05-19T12:04:10.829Z,28.70
2023-05-19T12:09:12.733Z,27.71
2023-05-19T12:14:15.686Z,28.50
2023-05-19T12:19:17.765Z,28.66
2023-05-19T12:24:20.800Z,28.73
2023-05-19T12:29:22.708Z,28.46
2023-05-19T12:34:25.685Z,28.61
2023-05-19T12:39:29.266Z,27.29
2023-05-19T12:44:39.616Z,28.12
2023-05-19T12:50:00.392Z,26.94
2023-05-19T12:55:07.603Z,27.72
2023-05-19T13:00:25.743Z,28.98
2023-05-19T13:05:29.252Z,28.49
2023-05-19T13:15:37.882Z,28.89
2023-05-19T13:20:41.947Z,29.72
2023-05-19T13:25:45.032Z,28.71
2023-05-19T13:30:49.788Z,28.42
2023-05-19T13:36:18.889Z,28.73
2023-05-19T13:41:29.416Z,28.22
2023-05-19T13:46:44.605Z,28.56
2023-05-19T13:51:50.055Z,29.58
2023-05-19T13:56:54.281Z,29.01
2023-05-19T14:01:58.255Z,29.47
2023-05-19T14:07:06.444Z,28.53
2023-05-19T14:12:20.229Z,29.68
2023-05-19T14:17:27.709Z,29.11
2023-05-19T14:22:29.704Z,28.91
2023-05-19T14:27:31.643Z,28.94
2023-05-19T14:32:34.648Z,28.93
2023-05-19T14:37:41.529Z,28.63
2023-05-19T14:42:43.530Z,29.02
2023-05-19T14:47:53.055Z,29.51
2023-05-19T14:52:56.680Z,29.03
2023-05-19T14:57:59.824Z,29.58
2023-05-19T15:03:03.341Z,30.42
2023-05-19T15:08:06.614Z,30.59
2023-05-19T15:13:09.752Z,30.82
2023-05-19T15:18:13.435Z,30.98
2023-05-19T15:23:15.558Z,30.21
2023-05-19T15:28:18.133Z,30.09
2023-05-19T15:33:20.154Z,30.38
2023-05-19T15:38:22.146Z,30.54
2023-05-19T15:43:24.035Z,30.33
2023-05-19T15:48:28.893Z,30.39
2023-05-19T15:53:31.001Z,30.78
2023-05-19T15:58:32.919Z,30.86
2023-05-19T16:03:34.929Z,30.82
2023-05-19T16:08:38.056Z,31.27
2023-05-19T16:13:39.916Z,31.84
2023-05-19T16:18:44.235Z,31.90
2023-05-19T16:23:46.213Z,31.53
2023-05-19T16:28:48.083Z,31.61
2023-05-19T16:33:50.549Z,31.88
2023-05-19T16:38:53.494Z,32.00
2023-05-19T16:43:55.444Z,31.89
2023-05-19T16:48:57.293Z,32.29
2023-05-19T16:53:59.127Z,32.44
2023-05-19T16:59:01.136Z,32.34
2023-05-19T17:04:03.142Z,32.41
2023-05-19T17:09:05.048Z,32.20
2023-05-19T17:14:09.268Z,32.44
2023-05-19T17:19:12.197Z,32.59
2023-05-19T17:24:14.028Z,32.48
2023-05-19T17:29:15.860Z,32.27
2023-05-19T17:34:17.773Z,32.67
2023-05-19T17:39:20.364Z,32.76
2023-05-19T17:44:22.270Z,32.46
2023-05-19T17:49:25.753Z,32.15
2023-05-19T17:54:28.017Z,32.63
2023-05-19T17:59:30.605Z,32.81
2023-05-19T18:04:32.880Z,33.29
2023-05-19T18:09:37.666Z,32.67
2023-05-19T18:14:39.927Z,32.92
2023-05-19T18:19:41.871Z,32.93
2023-05-19T18:24:44.072Z,32.67
2023-05-19T18:29:45.962Z,32.72
2023-05-19T18:34:49.105Z,33.26
2023-05-19T18:39:51.199Z,33.72
2023-05-19T18:44:53.268Z,34.02
2023-05-19T18:49:55.208Z,34.42
2023-05-19T18:54:57.082Z,35.97
2023-05-19T18:59:58.980Z,35.78
2023-05-19T19:05:01.581Z,35.93
2023-05-19T19:10:03.665Z,36.72
2023-05-19T19:15:06.127Z,36.86
2023-05-19T19:20:08.981Z,36.98
2023-05-19T19:25:10.960Z,36.75
2023-05-19T19:30:13.105Z,36.95
2023-05-19T19:35:16.057Z,37.20
2023-05-19T19:40:17.977Z,37.16
2023-05-19T19:45:20.957Z,37.42
2023-05-19T19:50:23.702Z,37.83
2023-05-19T19:55:25.690Z,37.90
2023-05-19T20:00:27.528Z,38.08
2023-05-19T20:05:29.391Z,38.05
2023-05-19T20:10:31.430Z,38.47
2023-05-19T20:15:33.363Z,38.12
2023-05-19T20:20:35.707Z,38.31
2023-05-19T20:25:53.719Z,38.30
2023-05-19T20:30:56.646Z,38.19
2023-05-19T20:35:58.510Z,38.44
2023-05-19T20:41:00.358Z,38.84
2023-05-19T20:46:03.818Z,39.24
2023-05-19T20:51:06.109Z,39.75
2023-05-19T20:56:10.561Z,39.98
2023-05-19T21:01:12.526Z,40.55
2023-05-19T21:06:14.396Z,40.57
2023-05-19T21:11:16.241Z,40.80
2023-05-19T21:16:18.113Z,41.32
2023-05-19T21:21:19.975Z,41.14
2023-05-19T21:26:22.194Z,41.17
2023-05-19T21:31:24.119Z,41.36
2023-05-19T21:36:26.123Z,41.57
2023-05-19T21:41:27.994Z,41.53
2023-05-19T21:46:29.917Z,41.80
2023-05-19T21:51:32.208Z,41.60
2023-05-19T21:56:34.187Z,41.42
2023-05-19T22:01:36.050Z,41.68
2023-05-19T22:06:37.934Z,42.04
2023-05-19T22:11:40.258Z,42.04
2023-05-19T22:16:42.218Z,42.70
2023-05-19T22:21:44.095Z,43.40
2023-05-19T22:26:47.073Z,43.74
2023-05-19T22:31:48.946Z,43.67
2023-05-19T22:36:50.789Z,43.70
2023-05-19T22:41:52.637Z,43.74
2023-05-19T22:46:54.643Z,44.35
2023-05-19T22:51:56.504Z,44.33
2023-05-19T22:56:58.372Z,45.18
2023-05-19T23:02:00.288Z,45.58
2023-05-19T23:07:02.128Z,45.55
2023-05-19T23:12:04.133Z,45.73
2023-05-19T23:17:06.076Z,46.25
2023-05-19T23:22:08.125Z,47.04
2023-05-19T23:27:09.991Z,47.28
2023-05-19T23:32:11.846Z,47.22
2023-05-19T23:37:13.729Z,46.90
2023-05-19T23:42:15.643Z,47.33
2023-05-19T23:47:17.491Z,46.94
2023-05-19T23:52:19.375Z,46.98
2023-05-19T23:57:21.511Z,46.95
